Sault Ste. Marie, MI

03:48 PM EST del 01 Marzo 2015 (GMT -0500)
Sault Ste Marie Municipal / Sanderson Field | Change Station
CLOSE
Current Station
Aeroporto
Location: Sault Ste Marie,
Altitudine: 715 ft
Stazioni meteo nelle vicinanze

Alt. 715 ft 46.48 °N, 84.36 °W | Updated 53 minutes ago

Mostly Cloudy
Molto nuvoloso
24 °F
Sembra 14 °F
N
10
Vento Variabile Vento da SSO
Gusts 21 mph

Oggi
Massima -- | Minima -- °F
--% Possibilità di precip.
Ieri
Massima -- | Minima -- °F
Precip. -- in
7:17 AM 6:23 PM
Gobba a ponente, 87% visible
Pressione 30.15 in
Visibilità 10.0 miglia
Nuvole Molto nuvoloso 3700 ft
Raffreddamento del vento 14 °F
Punto di rugiada 11 °F
Umidità 57%
Piovosità 0.00 in
Spessore del manto nevoso Non disponibile.
Raggi UV 2 fuori da 12
Polline .40 fuori da 12
Qualità dell'aria Non disponibile.
Flu Activity Non disponibile.
METAR KANJ 011955Z AUTO 21009G18KT 10SM BKN037 M04/M12 A3011 RMK AO2 SLP209 T10441117

More Conditions Fewer Conditions

Pressione 30.15 in
Visibilità 10.0 miglia
Nuvole Molto nuvoloso 3700 ft
Raffreddamento del vento 14 °F
Punto di rugiada 11 °F
Umidità 57%
Piovosità 0.00 in
Spessore del manto nevoso Non disponibile.
Raggi UV 2 fuori da 12
Polline .40 fuori da 12
Qualità dell'aria Non disponibile.
Flu Activity Non disponibile.
METAR KANJ 011955Z AUTO 21009G18KT 10SM BKN037 M04/M12 A3011 RMK AO2 SLP209 T10441117

More Conditions Fewer Conditions

Nowcast | as of 3:00 PM EST on March 1, 2015

At 4 PM...mostly cloudy. Scattered snow showers. Temperature 22. Southwest winds 10 mph. Scattered snow showers. Chance of snow showers. At 10 PM...mostly cloudy. Chance of snow showers. Temperature 18. West winds 7 mph.

×

10-Day Weather Forecast

Almanac

Astronomia

Mar. 01, 2015 Alba Tramonto
Ora attuale
Crepuscolo civile
Crepuscolo nautico
Crepuscolo astronomico
Luna
Estensione della luce visibile
Lunghezza del giorno
Tomorrow will be .
, % of the Moon is Illuminated

Gli estremi di oggi

State Highs State Lows

Community

WunderPhotos

Upload Photos

1,801,550 foto caricate!

WunderBlogs® & News

Nearby

Qualità dell'aria

  Qualità dell'aria Indice AQ Inquinante
Not available.

Profondità neve

Stazione Profondità Altitudine

Attività sismica

Città  Distanza Mag. Data & Ora
Minimo Magnitudo Mostrato è 2.5.

Temperature delle acque costiere

Località Temperatura

Stazioni meteo nelle vicinanze